Time;durP1;ratioP1;P1;durP2;ratioP2;P2;SDS_P1;SDS_P2;PMS_P1;PMS_P2;Temp;Humidity;BMP_temperature;BMP_pressure;BME280_temperature;BME280_humidity;BME280_pressure;Samples;Min_cycle;Max_cycle;Signal;HPM_P1;HPM_P2
2024/04/09 00:00:34;;;;;;;21.73;12.27;;;12.80;99.90;;;17.96;100.00;99681.56;5445675;26;20446;-77
2024/04/09 00:03:00;;;;;;;21.65;12.13;;;12.80;99.90;;;18.02;100.00;99673.25;5448278;26;20122;-77
2024/04/09 00:05:31;;;;;;;18.10;12.20;;;12.90;99.90;;;18.21;100.00;99670.59;5414418;26;20009;-77
2024/04/09 00:07:58;;;;;;;22.15;11.85;;;12.90;99.90;;;18.37;100.00;99671.25;5448940;26;20006;-77
2024/04/09 00:10:25;;;;;;;16.83;11.70;;;12.90;99.90;;;18.44;100.00;99671.72;5474351;26;19995;-77
2024/04/09 00:12:52;;;;;;;17.15;11.65;;;12.90;99.90;;;18.43;100.00;99644.41;5418579;26;20010;-76
2024/04/09 00:15:18;;;;;;;17.90;10.68;;;13.00;99.90;;;18.02;100.00;99667.75;5447656;26;20013;-78
2024/04/09 00:17:55;;;;;;;18.80;11.30;;;12.90;99.90;;;17.77;100.00;99645.59;5447329;26;19991;-77
2024/04/09 00:20:24;;;;;;;18.05;12.32;;;12.80;99.90;;;17.92;100.00;99699.00;5448108;26;20014;-77
2024/04/09 00:22:54;;;;;;;19.77;12.18;;;12.80;99.90;;;17.74;100.00;99689.47;5446544;26;20009;-77
2024/04/09 00:25:23;;;;;;;24.92;13.23;;;12.80;99.90;;;17.62;100.00;99698.94;5447650;26;19999;-77
2024/04/09 00:27:52;;;;;;;22.65;14.55;;;12.90;99.90;;;17.96;100.00;99686.28;5447370;26;19998;-78
2024/04/09 00:30:19;;;;;;;23.08;13.45;;;13.00;99.90;;;18.32;100.00;99676.84;5448671;26;19998;-77
2024/04/09 00:32:46;;;;;;;20.95;12.68;;;12.90;99.90;;;18.20;100.00;99667.00;5415146;26;19998;-77
2024/04/09 00:35:12;;;;;;;20.45;13.38;;;12.80;99.90;;;18.24;100.00;99676.34;5417917;26;20014;-77
2024/04/09 00:37:41;;;;;;;20.45;12.82;;;12.70;99.90;;;18.08;100.00;99661.88;5439261;26;20318;-77
2024/04/09 00:40:09;;;;;;;16.80;11.13;;;12.60;99.90;;;17.98;100.00;99661.97;5468256;26;19996;-77
2024/04/09 00:42:38;;;;;;;;;;;12.50;99.90;;;17.76;100.00;99651.38;5448557;26;20052;-77
2024/04/09 00:45:04;;;;;;;15.43;10.20;;;12.40;99.90;;;17.82;100.00;99647.50;5446736;26;19953;-77
2024/04/09 00:47:34;;;;;;;18.10;10.77;;;12.30;99.90;;;17.83;100.00;99655.47;5446388;26;20009;-77
2024/04/09 00:50:05;;;;;;;19.98;11.57;;;12.30;99.90;;;17.96;100.00;99662.25;5421512;26;20067;-77
2024/04/09 00:52:33;;;;;;;18.65;11.95;;;12.30;99.90;;;18.03;100.00;99661.09;5445961;26;20003;-77
2024/04/09 00:55:02;;;;;;;16.60;12.38;;;12.30;99.90;;;18.05;100.00;99661.66;5446236;26;20314;-77
2024/04/09 00:57:29;;;;;;;16.67;12.18;;;12.40;99.90;;;18.16;100.00;99665.97;5446759;26;20006;-77
2024/04/09 00:59:56;;;;;;;22.33;13.47;;;12.50;99.90;;;18.35;100.00;99670.75;5417743;26;20007;-77
2024/04/09 01:02:23;;;;;;;21.08;14.02;;;12.70;99.90;;;18.49;100.00;99673.63;5409586;26;20000;-77
2024/04/09 01:04:53;;;;;;;24.50;15.27;;;12.80;99.90;;;18.62;100.00;99672.91;5442700;26;20003;-77
2024/04/09 01:07:19;;;;;;;27.80;15.82;;;13.00;99.90;;;18.73;100.00;99681.88;5446543;26;19999;-77
2024/04/09 01:09:46;;;;;;;23.63;14.98;;;13.10;99.90;;;18.67;100.00;99683.06;5446968;26;20014;-77
2024/04/09 01:12:12;;;;;;;21.15;14.52;;;13.30;99.90;;;18.88;100.00;99685.59;5447018;26;20000;-77
2024/04/09 01:14:38;;;;;;;21.85;14.45;;;13.40;99.90;;;19.04;100.00;99675.97;5416315;26;19998;-77
2024/04/09 01:17:04;;;;;;;23.00;14.18;;;13.50;99.90;;;19.16;100.00;99674.75;5447513;26;20434;-77
2024/04/09 01:19:30;;;;;;;20.88;13.15;;;13.50;99.90;;;19.17;100.00;99674.41;5440583;26;20019;-78
2024/04/09 01:21:56;;;;;;;24.88;13.13;;;13.60;99.90;;;19.18;100.00;99661.44;5416817;26;20083;-76
2024/04/09 01:24:24;;;;;;;16.92;13.18;;;13.50;99.90;;;19.20;100.00;99668.28;5448241;26;20027;-76
2024/04/09 01:26:51;;;;;;;;;;;13.50;99.90;;;18.78;100.00;99662.47;5436237;26;19998;-76
2024/04/09 01:29:18;;;;;;;23.95;12.52;;;13.50;99.90;;;18.30;100.00;99668.00;5435427;26;19932;-77
2024/04/09 01:31:44;;;;;;;21.38;13.10;;;13.50;99.90;;;18.49;100.00;99668.09;5445229;26;20005;-77
2024/04/09 01:34:11;;;;;;;21.80;13.40;;;13.50;99.90;;;18.99;100.00;99666.97;5445355;26;19998;-77
2024/04/09 01:36:37;;;;;;;23.57;13.50;;;13.60;99.90;;;19.01;100.00;99665.53;5444530;26;20005;-77
2024/04/09 01:39:08;;;;;;;22.35;12.80;;;13.70;99.90;;;18.72;100.00;99651.81;5416399;26;19998;-77
2024/04/09 01:41:38;;;;;;;21.15;13.07;;;13.70;99.90;;;19.20;100.00;99648.13;5446419;26;20015;-78
2024/04/09 01:44:04;;;;;;;21.83;14.00;;;13.70;99.90;;;18.68;100.00;99635.81;5446987;26;20501;-78
2024/04/09 01:46:30;;;;;;;22.05;13.55;;;13.80;99.90;;;18.97;100.00;99645.09;5415259;26;19999;-77
2024/04/09 01:48:56;;;;;;;22.38;13.05;;;13.80;99.90;;;18.91;100.00;99635.25;5444298;26;20010;-77
2024/04/09 01:51:21;;;;;;;23.42;12.75;;;13.80;99.90;;;19.29;100.00;99643.56;5445700;26;20007;-77
2024/04/09 01:53:48;;;;;;;21.05;12.90;;;13.80;99.90;;;19.09;100.00;99639.97;5444775;26;20014;-78
2024/04/09 01:56:15;;;;;;;19.15;12.45;;;13.80;99.90;;;19.00;100.00;99647.31;5445007;26;20013;-77
2024/04/09 01:58:41;;;;;;;18.05;12.85;;;13.90;99.90;;;19.01;100.00;99646.19;5445801;26;20022;-77
2024/04/09 02:01:10;;;;;;;16.08;11.32;;;13.90;99.90;;;19.31;100.00;99651.56;5447078;26;20046;-77
2024/04/09 02:03:38;;;;;;;21.15;12.05;;;13.90;99.90;;;18.74;100.00;99649.56;5446223;26;20022;-77
2024/04/09 02:06:07;;;;;;;20.13;12.32;;;13.90;99.90;;;18.58;100.00;99643.41;5416879;26;20572;-77
2024/04/09 02:08:37;;;;;;;23.10;12.85;;;13.90;99.90;;;18.17;100.00;99650.19;5444918;26;20073;-78
2024/04/09 02:11:05;;;;;;;22.50;12.98;;;13.90;99.90;;;18.41;100.00;99644.72;5444301;26;20031;-77
2024/04/09 02:13:31;;;;;;;;;;;13.90;99.90;;;19.11;100.00;99632.22;5447047;26;20027;-77
2024/04/09 02:16:08;;;;;;;24.25;12.32;;;13.90;99.90;;;18.94;100.00;99642.94;5477889;26;19924;-77
2024/04/09 02:18:38;;;;;;;20.85;12.18;;;13.90;99.90;;;19.14;100.00;99624.47;5450173;26;20001;-77
2024/04/09 02:21:09;;;;;;;19.50;11.98;;;13.90;99.90;;;19.40;100.00;99630.41;5450049;26;20071;-77
2024/04/09 02:23:41;;;;;;;20.17;11.10;;;13.90;99.90;;;19.44;100.00;99623.13;5447493;26;19995;-77
2024/04/09 02:26:07;;;;;;;13.90;10.52;;;13.90;99.90;;;19.57;100.00;99627.09;5444260;26;20371;-77
2024/04/09 02:28:33;;;;;;;26.48;12.15;;;13.90;99.90;;;19.37;100.00;99611.66;5419027;26;19999;-77
2024/04/09 02:30:59;;;;;;;22.45;12.23;;;13.90;99.90;;;19.43;100.00;99606.88;5448175;26;19995;-77
2024/04/09 02:33:25;;;;;;;20.73;12.48;;;13.90;99.90;;;19.28;100.00;99608.75;5420083;26;20003;-76
2024/04/09 02:35:59;;;;;;;20.95;11.55;;;13.90;99.90;;;18.86;100.00;99605.75;5448654;26;20087;-77
2024/04/09 02:38:26;;;;;;;23.17;11.30;;;14.00;99.90;;;19.43;100.00;99599.38;5476716;26;20002;-77
2024/04/09 02:40:53;;;;;;;21.70;10.88;;;14.10;99.90;;;19.64;100.00;99597.09;5447053;26;19995;-77
2024/04/09 02:43:20;;;;;;;27.50;12.02;;;14.10;99.90;;;19.53;100.00;99620.50;5449499;26;20039;-77
2024/04/09 02:45:46;;;;;;;15.73;10.30;;;14.10;99.90;;;19.49;100.00;99602.88;5447480;26;20003;-77
2024/04/09 02:48:12;;;;;;;16.50;10.93;;;14.20;99.90;;;19.47;100.00;99605.13;5448270;26;20063;-77
2024/04/09 02:50:38;;;;;;;19.48;10.93;;;14.10;99.90;;;19.67;100.00;99607.56;5448327;26;20003;-78
2024/04/09 02:53:03;;;;;;;20.70;10.57;;;14.20;99.90;;;19.28;100.00;99621.75;5448516;26;20013;-78
2024/04/09 02:55:29;;;;;;;18.50;11.35;;;14.20;99.90;;;18.95;100.00;99636.28;5442508;26;20052;-78
2024/04/09 02:57:55;;;;;;;22.77;10.43;;;14.20;99.90;;;18.96;100.00;99655.34;5446703;26;20014;-78
2024/04/09 03:00:20;;;;;;;18.25;10.48;;;14.20;99.90;;;18.91;100.00;99662.88;5445895;26;20034;-78
2024/04/09 03:02:51;;;;;;;16.83;9.93;;;14.30;99.90;;;19.31;100.00;99660.66;5448361;26;20036;-78
2024/04/09 03:05:19;;;;;;;18.10;9.70;;;14.30;99.90;;;19.75;100.00;99657.78;5419049;26;20001;-78
2024/04/09 03:07:45;;;;;;;19.15;9.27;;;14.30;99.90;;;19.72;100.00;99655.63;5446500;26;20026;-78
2024/04/09 03:10:14;;;;;;;19.73;9.38;;;14.30;99.90;;;19.29;100.00;99653.81;5448704;26;20039;-78
2024/04/09 03:12:42;;;;;;;19.33;9.38;;;14.40;99.90;;;19.20;100.00;99640.66;5447575;26;19999;-78
2024/04/09 03:15:09;;;;;;;18.67;9.00;;;14.40;99.90;;;19.22;100.00;99648.66;5449410;26;20422;-79
2024/04/09 03:17:35;;;;;;;15.38;9.02;;;14.40;99.90;;;19.83;100.00;99652.38;5448567;26;20294;-77
2024/04/09 03:20:01;;;;;;;17.95;10.05;;;14.40;99.90;;;19.90;100.00;99632.63;5418217;26;20003;-78
2024/04/09 03:22:26;;;;;;;14.85;8.82;;;14.50;99.90;;;19.87;100.00;99602.75;5418054;26;20002;-78
2024/04/09 03:24:52;;;;;;;18.02;8.93;;;14.50;99.90;;;19.83;100.00;99616.41;5445381;26;20028;-78
2024/04/09 03:27:18;;;;;;;16.88;9.38;;;14.50;99.90;;;19.84;100.00;99601.44;5418716;26;20458;-78
2024/04/09 03:29:48;;;;;;;17.38;9.55;;;14.50;99.90;;;20.05;100.00;99622.41;5418450;26;20022;-78
2024/04/09 03:32:13;;;;;;;15.15;9.23;;;14.50;99.90;;;19.57;100.00;99620.75;5419242;26;20041;-78
2024/04/09 03:34:39;;;;;;;13.55;8.50;;;14.40;99.90;;;19.73;100.00;99608.28;5447901;26;19991;-77
2024/04/09 03:37:05;;;;;;;18.60;8.98;;;14.40;99.90;;;19.94;100.00;99616.25;5448913;26;20006;-77
2024/04/09 03:39:30;;;;;;;15.60;8.82;;;14.40;99.90;;;20.04;100.00;99609.69;5417485;26;20068;-77
2024/04/09 03:41:56;;;;;;;14.70;8.43;;;14.30;99.90;;;19.99;100.00;99607.84;5419156;26;20062;-78
2024/04/09 03:44:22;;;;;;;14.63;9.20;;;14.40;99.90;;;19.35;100.00;99608.38;5448862;26;20034;-77
2024/04/09 03:46:47;;;;;;;16.90;9.43;;;14.30;99.90;;;19.36;100.00;99602.53;5447815;26;20101;-77
2024/04/09 03:49:13;;;;;;;16.27;9.27;;;14.20;99.90;;;19.31;100.00;99602.59;5448065;26;20002;-78
2024/04/09 03:51:39;;;;;;;19.98;9.63;;;14.20;99.90;;;19.40;100.00;99573.16;5418322;26;20006;-77
2024/04/09 03:54:07;;;;;;;15.43;9.18;;;14.20;99.90;;;19.74;100.00;99586.97;5447048;26;20453;-78
2024/04/09 03:56:33;;;;;;;20.13;9.05;;;14.20;99.90;;;19.85;100.00;99582.88;5439050;26;20072;-78
2024/04/09 03:58:59;;;;;;;16.75;9.18;;;14.20;99.90;;;19.93;100.00;99598.81;5447365;26;20038;-77
2024/04/09 04:01:24;;;;;;;18.05;9.25;;;14.20;99.90;;;19.84;100.00;99584.00;5447829;26;19999;-78
2024/04/09 04:03:50;;;;;;;14.57;8.65;;;14.30;99.90;;;19.91;100.00;99580.88;5418086;26;19995;-78
2024/04/09 04:06:16;;;;;;;20.83;9.82;;;14.20;99.90;;;19.05;100.00;99572.59;5448065;26;20064;-77
2024/04/09 04:08:43;;;;;;;18.80;9.02;;;14.30;99.90;;;19.67;100.00;99577.13;5417443;26;19999;-77
2024/04/09 04:11:12;;;;;;;16.98;8.90;;;14.20;99.90;;;20.04;100.00;99580.09;5448028;26;19995;-78
2024/04/09 04:13:39;;;;;;;18.33;8.80;;;14.30;99.90;;;19.76;100.00;99580.03;5447546;26;20072;-78
2024/04/09 04:16:14;;;;;;;18.30;9.15;;;14.20;99.90;;;18.97;100.00;99582.38;5446976;26;20829;-77
2024/04/09 04:18:45;;;;;;;14.82;9.10;;;14.20;99.90;;;19.38;100.00;99569.88;5436496;26;20390;-77
2024/04/09 04:21:14;;;;;;;15.65;9.38;;;14.10;99.90;;;19.54;100.00;99577.91;5448081;26;20052;-77
2024/04/09 04:23:41;;;;;;;18.50;9.13;;;14.10;99.90;;;19.62;100.00;99577.19;5446896;26;20003;-77
2024/04/09 04:26:10;;;;;;;18.15;9.25;;;14.10;99.90;;;19.80;100.00;99580.22;5446826;26;20038;-77
2024/04/09 04:28:38;;;;;;;15.85;8.82;;;14.10;99.90;;;19.21;100.00;99580.66;5415802;26;19998;-77
2024/04/09 04:31:12;;;;;;;18.58;8.57;;;14.20;99.90;;;18.89;100.00;99568.41;5446677;26;20006;-78
2024/04/09 04:33:40;;;;;;;15.00;8.00;;;14.20;99.90;;;19.68;100.00;99558.56;5440086;26;20124;-77
2024/04/09 04:36:07;;;;;;;18.95;8.52;;;14.20;99.90;;;19.81;100.00;99563.31;5448044;26;20034;-77
2024/04/09 04:38:34;;;;;;;16.40;8.07;;;14.20;99.90;;;19.84;100.00;99570.16;5445070;26;20092;-77
2024/04/09 04:41:00;;;;;;;13.55;7.93;;;14.30;99.90;;;19.79;100.00;99564.72;5416811;26;20007;-76
2024/04/09 04:43:26;;;;;;;17.48;8.20;;;14.30;99.90;;;19.86;100.00;99559.63;5445040;26;19991;-76
2024/04/09 04:45:52;;;;;;;18.70;7.97;;;14.40;99.90;;;19.89;100.00;99547.13;5417169;26;20002;-76
2024/04/09 04:48:18;;;;;;;18.65;7.68;;;14.40;99.90;;;19.65;100.00;99548.94;5417918;26;20088;-75
2024/04/09 04:50:48;;;;;;;16.40;7.05;;;14.50;99.90;;;19.90;100.00;99546.84;5445591;26;19999;-76
2024/04/09 04:53:13;;;;;;;13.93;6.63;;;14.50;99.90;;;20.05;100.00;99553.22;5440333;26;19999;-77
2024/04/09 04:55:39;;;;;;;22.67;7.05;;;14.50;99.90;;;20.08;100.00;99561.72;5447343;26;20049;-77
2024/04/09 04:58:06;;;;;;;21.17;7.55;;;14.50;99.90;;;19.90;100.00;99555.13;5416258;26;19999;-78
2024/04/09 05:00:35;;;;;;;13.48;7.10;;;14.50;99.90;;;20.03;100.00;99550.75;5415528;26;19999;-77
2024/04/09 05:03:01;;;;;;;18.27;7.57;;;14.50;99.90;;;19.00;100.00;99556.09;5471572;26;19994;-77
2024/04/09 05:05:28;;;;;;;18.15;7.13;;;14.50;99.90;;;19.06;100.00;99567.91;5413016;26;20005;-77
2024/04/09 05:07:55;;;;;;;18.38;7.68;;;14.50;99.90;;;19.24;100.00;99557.94;5442147;26;19998;-77
2024/04/09 05:10:22;;;;;;;21.20;7.78;;;14.50;99.90;;;19.72;100.00;99561.56;5444488;26;20003;-77
2024/04/09 05:12:52;;;;;;;16.42;7.60;;;14.50;99.90;;;19.89;100.00;99564.56;5440893;26;20006;-77
2024/04/09 05:15:19;;;;;;;15.23;7.22;;;14.60;99.90;;;19.59;100.00;99566.75;5447843;26;19995;-77
2024/04/09 05:17:46;;;;;;;16.40;7.65;;;14.60;99.90;;;19.02;100.00;99564.91;5447105;26;19999;-77
2024/04/09 05:20:16;;;;;;;13.63;7.15;;;14.60;99.90;;;19.65;100.00;99571.09;5415998;26;19994;-77
2024/04/09 05:22:45;;;;;;;18.60;7.60;;;14.60;99.90;;;19.84;100.00;99564.63;5476921;26;19999;-78
2024/04/09 05:25:12;;;;;;;25.05;9.27;;;14.60;99.90;;;20.09;100.00;99570.84;5447175;26;19999;-78
2024/04/09 05:27:39;;;;;;;14.43;7.78;;;14.60;99.90;;;20.49;100.00;99571.13;5445804;26;19991;-76
2024/04/09 05:30:06;;;;;;;14.82;7.38;;;14.60;99.90;;;20.33;100.00;99575.34;5446540;26;20013;-77
2024/04/09 05:32:38;;;;;;;23.08;7.65;;;14.60;99.90;;;20.02;100.00;99578.75;5445319;26;20019;-77
2024/04/09 05:35:04;;;;;;;22.20;7.30;;;14.70;99.90;;;19.92;100.00;99579.75;5446798;26;19999;-77
2024/04/09 05:37:31;;;;;;;21.23;7.88;;;14.80;99.90;;;20.23;100.00;99581.91;5447353;26;19999;-78
2024/04/09 05:39:58;;;;;;;21.08;7.88;;;14.90;99.90;;;20.31;99.95;99574.84;5437474;26;20010;-77
2024/04/09 05:42:24;;;;;;;24.03;7.40;;;;;;;20.32;100.00;99606.94;5447377;26;19998;-77
2024/04/09 05:44:50;;;;;;;24.40;7.18;;;;;;;20.18;99.90;99626.31;5446352;26;20003;-77
2024/04/09 05:47:17;;;;;;;26.05;7.57;;;;;;;20.06;100.00;99641.50;5415248;26;20074;-78
2024/04/09 05:49:44;;;;;;;17.17;6.47;;;;;;;20.31;100.00;99649.59;5447929;26;20429;-77
2024/04/09 05:52:11;;;;;;;20.67;5.05;;;;;;;20.06;97.80;99665.56;5420400;26;20035;-77
2024/04/09 05:54:43;;;;;;;19.92;4.43;;;;;;;20.02;83.30;99678.38;5449999;26;19995;-77
2024/04/09 05:57:12;;;;;;;22.65;4.40;;;;;;;20.46;78.52;99663.16;5413634;26;20450;-77
2024/04/09 05:59:38;;;;;;;16.77;4.68;;;;;;;20.80;73.30;99655.56;5448334;26;20007;-76
2024/04/09 06:02:04;;;;;;;17.25;3.95;;;;;;;21.04;73.22;99649.78;5450921;26;19995;-75
2024/04/09 06:04:31;;;;;;;16.65;4.15;;;;;;;21.05;72.05;99662.53;5450177;26;20307;-77
2024/04/09 06:06:58;;;;;;;20.95;4.80;;;;;;;21.15;69.94;99666.19;5447923;26;20006;-77
2024/04/09 06:09:24;;;;;;;19.30;5.07;;;;;;;21.24;66.42;99651.25;5449754;26;20087;-78
2024/04/09 06:11:50;;;;;;;18.95;4.07;;;;;;;21.52;64.57;99667.00;5449776;26;20023;-77
2024/04/09 06:14:16;;;;;;;20.63;3.80;;;;;;;21.89;62.58;99666.97;5419057;26;20006;-78
2024/04/09 06:16:42;;;;;;;17.55;3.40;;;;;;;22.12;60.04;99667.72;5448535;26;20013;-78
2024/04/09 06:19:09;;;;;;;15.50;3.70;;;;;;;22.40;58.95;99664.75;5419185;26;20006;-76
2024/04/09 06:21:35;;;;;;;18.90;4.18;;;;;;;22.36;57.79;99664.56;5478520;26;19998;-76
2024/04/09 06:24:01;;;;;;;18.98;3.92;;;;;;;22.69;57.13;99680.09;5448724;26;20002;-76
2024/04/09 06:26:27;;;;;;;22.35;3.70;;;;;;;22.79;56.33;99679.78;5419045;26;20010;-77
2024/04/09 06:28:53;;;;;;;25.83;4.45;;;;;;;22.86;57.17;99696.00;5448591;26;20395;-77
2024/04/09 06:31:19;;;;;;;20.88;4.57;;;;;;;22.87;56.29;99707.94;5418642;26;19995;-76
2024/04/09 06:33:46;;;;;;;29.42;5.00;;;;;;;22.98;55.25;99700.94;5386438;26;20423;-78
2024/04/09 06:36:13;;;;;;;22.02;4.63;;;;;;;22.70;55.26;99702.03;5450022;26;20048;-77
2024/04/09 06:38:39;;;;;;;25.83;4.32;;;;;;;22.76;55.35;99705.44;5450992;26;20089;-77
2024/04/09 06:41:05;;;;;;;17.08;3.65;;;;;;;22.59;55.98;99710.97;5448520;26;20007;-77
2024/04/09 06:43:32;;;;;;;21.20;3.97;;;;;;;22.29;57.14;99708.66;5419735;26;20002;-77
2024/04/09 06:45:58;;;;;;;23.27;3.88;;;;;;;22.17;58.34;99708.44;5446763;26;20034;-78
2024/04/09 06:48:24;;;;;;;27.10;4.10;;;;;;;21.20;61.43;99697.41;5417622;26;20002;-79
2024/04/09 06:50:50;;;;;;;18.90;3.85;;;14.90;99.90;;;21.17;63.24;99694.41;5448305;26;20387;-76
2024/04/09 06:53:16;;;;;;;19.42;4.22;;;18.00;99.90;;;20.98;63.41;99689.84;5446749;26;20002;-80
2024/04/09 06:55:43;;;;;;;22.50;4.43;;;17.80;99.90;;;21.03;64.68;99681.41;5466530;26;19994;-77
2024/04/09 06:58:11;;;;;;;17.63;4.00;;;17.80;99.90;;;20.68;63.90;99700.38;5456504;26;20002;-79
2024/04/09 07:00:37;;;;;;;18.85;3.78;;;17.80;99.90;;;21.51;63.44;99718.06;5429090;26;20459;-79
2024/04/09 07:03:04;;;;;;;19.13;3.70;;;17.80;99.90;;;20.89;63.50;99722.19;5449382;26;19995;-78
2024/04/09 07:05:31;;;;;;;;;;;17.80;99.90;;;20.75;65.04;99742.38;5444593;26;20010;-78
2024/04/09 07:07:59;;;;;;;21.85;4.03;;;17.80;99.90;;;21.06;64.53;99744.56;5451406;26;19993;-78
2024/04/09 07:10:27;;;;;;;15.82;3.53;;;17.80;99.90;;;20.75;63.13;99744.31;5457521;26;19999;-78
2024/04/09 07:12:53;;;;;;;20.38;2.92;;;17.80;99.90;;;20.93;64.97;99721.25;5460641;26;20468;-77
2024/04/09 07:15:25;;;;;;;14.38;2.75;;;17.80;99.90;;;21.60;62.82;99726.44;5446687;26;20061;-77
2024/04/09 07:17:52;;;;;;;15.00;3.35;;;17.70;99.90;;;22.11;59.92;99713.31;5448688;26;19995;-77
2024/04/09 07:20:17;;;;;;;12.55;2.97;;;17.80;99.90;;;21.22;63.42;99722.06;5449080;26;20003;-77
2024/04/09 07:22:43;;;;;;;12.73;2.70;;;17.80;99.90;;;20.95;64.96;99740.34;5419113;26;20460;-78
2024/04/09 07:25:10;;;;;;;12.32;2.97;;;17.70;99.90;;;20.81;65.18;99719.00;5450057;26;20043;-78
2024/04/09 07:27:36;;;;;;;14.30;2.60;;;17.70;99.90;;;20.23;67.42;99735.03;5389814;26;20022;-77
2024/04/09 07:30:03;;;;;;;15.48;3.38;;;17.70;99.90;;;20.66;68.65;99727.59;5452138;26;20003;-78
2024/04/09 07:32:29;;;;;;;14.43;3.07;;;17.70;99.90;;;21.51;65.78;99754.16;5459967;26;20010;-78
2024/04/09 07:34:55;;;;;;;15.05;3.08;;;17.70;99.90;;;20.64;68.33;99729.84;5434374;26;20041;-79
2024/04/09 07:37:21;;;;;;;13.85;3.13;;;17.80;99.90;;;21.94;64.64;99756.47;5460378;26;20010;-80
2024/04/09 07:39:46;;;;;;;18.08;4.45;;;17.80;99.90;;;22.74;61.83;99771.66;5467411;26;20002;-78
2024/04/09 07:42:12;;;;;;;13.88;3.42;;;18.00;99.90;;;22.01;62.44;99760.75;5462885;26;20072;-81
2024/04/09 07:44:38;;;;;;;12.80;3.00;;;18.10;99.90;;;21.80;65.19;99787.06;5464274;26;19994;-79
2024/04/09 07:47:03;;;;;;;11.43;2.47;;;18.20;99.90;;;21.96;65.98;99793.06;5463202;26;20482;-79
2024/04/09 07:49:30;;;;;;;16.70;2.75;;;18.10;99.90;;;21.87;66.22;99792.19;5460974;26;20075;-79
2024/04/09 07:51:56;;;;;;;13.53;2.97;;;18.20;99.90;;;21.54;69.23;99789.59;5466479;26;20026;-78
2024/04/09 07:54:22;;;;;;;13.57;3.50;;;18.10;99.90;;;21.27;68.31;99810.69;5462742;26;20237;-80
2024/04/09 07:56:48;;;;;;;15.00;2.85;;;18.20;99.90;;;21.73;68.22;99788.63;5417536;26;20434;-79
2024/04/09 07:59:13;;;;;;;14.40;2.83;;;18.20;99.90;;;21.19;69.87;99805.84;5432765;26;20006;-81
2024/04/09 08:01:39;;;;;;;17.48;3.38;;;18.20;99.90;;;21.89;66.29;99811.31;5452786;26;20434;-81
2024/04/09 08:04:05;;;;;;;9.73;2.80;;;18.30;99.90;;;21.27;66.65;99803.19;5416226;26;20386;-80
2024/04/09 08:06:33;;;;;;;12.93;2.88;;;18.30;99.90;;;20.95;69.97;99827.13;5444400;26;19999;-79
2024/04/09 08:08:59;;;;;;;15.73;2.35;;;18.10;99.90;;;21.46;68.53;99829.97;5458086;26;20013;-80
2024/04/09 08:11:25;;;;;;;11.10;2.40;;;18.10;99.90;;;21.50;68.13;99825.44;5454783;26;19998;-78
2024/04/09 08:13:50;;;;;;;12.50;2.58;;;18.10;99.90;;;21.25;68.34;99802.66;5444703;26;20391;-80
2024/04/09 08:16:16;;;;;;;11.75;2.70;;;18.10;99.90;;;21.11;70.27;99804.63;5452315;26;20088;-80
2024/04/09 08:18:42;;;;;;;10.00;2.35;;;17.90;99.90;;;21.22;68.95;99808.03;5446270;26;20014;-79
2024/04/09 08:21:10;;;;;;;9.77;2.58;;;17.90;99.90;;;20.72;70.27;99811.44;5443287;26;19999;-78
2024/04/09 08:23:36;;;;;;;11.30;2.90;;;17.80;99.90;;;20.12;71.78;99800.00;5416110;26;20014;-78
2024/04/09 08:26:02;;;;;;;11.32;2.13;;;17.70;99.90;;;20.45;73.29;99791.72;5451155;26;20093;-78
2024/04/09 08:28:27;;;;;;;12.23;2.50;;;17.70;99.90;;;20.15;73.31;99813.25;5468485;26;20011;-77
2024/04/09 08:30:53;;;;;;;12.80;2.30;;;17.60;99.90;;;20.54;74.33;99825.06;5438784;26;20017;-76
2024/04/09 08:33:20;;;;;;;13.18;2.55;;;17.50;99.90;;;20.69;71.57;99822.03;5466063;26;19998;-77
2024/04/09 08:35:47;;;;;;;9.73;2.75;;;17.60;99.90;;;21.20;70.40;99829.69;5417878;26;19998;-80
2024/04/09 08:38:14;;;;;;;10.13;2.25;;;17.60;99.90;;;21.08;71.06;99833.78;5446507;26;20027;-78
2024/04/09 08:40:40;;;;;;;10.60;2.72;;;17.60;99.90;;;20.64;74.08;99840.69;5417809;26;20449;-79
2024/04/09 08:43:06;;;;;;;9.20;2.65;;;17.60;99.90;;;20.16;75.06;99831.53;5416535;26;20434;-79
2024/04/09 08:45:33;;;;;;;8.73;2.55;;;17.50;99.90;;;21.27;72.16;99843.97;5417973;26;20368;-77
2024/04/09 08:48:02;;;;;;;9.85;2.60;;;17.60;99.90;;;21.38;70.03;99841.81;5410556;26;19999;-78
2024/04/09 08:50:28;;;;;;;8.43;2.30;;;17.70;99.90;;;21.16;73.30;99876.63;5445319;26;19998;-78
2024/04/09 08:52:57;;;;;;;12.55;2.40;;;17.60;99.90;;;21.51;69.92;99870.69;5447056;26;20005;-77
2024/04/09 08:55:23;;;;;;;8.63;2.75;;;17.70;99.90;;;21.58;68.58;99859.13;5437045;26;19999;-77
2024/04/09 08:57:49;;;;;;;8.43;2.35;;;17.80;99.90;;;21.85;68.16;99883.28;5443844;26;20001;-78
2024/04/09 09:00:18;;;;;;;6.22;2.33;;;18.00;99.90;;;21.82;67.34;99895.03;5416199;26;19998;-79
2024/04/09 09:02:44;;;;;;;9.07;2.40;;;18.10;99.90;;;21.67;68.75;99873.97;5442653;26;20462;-78
2024/04/09 09:05:22;;;;;;;11.18;3.10;;;18.20;99.90;;;21.73;69.76;99905.19;5445797;26;20399;-78
2024/04/09 09:08:02;;;;;;;15.10;3.30;;;18.20;99.90;;;21.25;70.09;99891.41;5442357;26;20022;-78
2024/04/09 09:10:28;;;;;;;13.32;2.80;;;18.20;99.90;;;20.97;72.78;99916.34;5442373;26;19994;-79
2024/04/09 09:13:02;;;;;;;10.00;2.40;;;18.20;99.90;;;22.13;69.78;99927.66;5438865;26;20002;-77
2024/04/09 09:15:29;;;;;;;11.52;2.65;;;18.50;99.90;;;21.90;68.98;99924.00;5413358;26;20023;-77
2024/04/09 09:17:58;;;;;;;11.00;2.60;;;;;;;22.69;64.52;99919.97;5441453;26;20760;-79
2024/04/09 09:20:25;;;;;;;9.75;2.50;;;;;;;22.93;65.35;99935.47;5446695;26;19994;-79
2024/04/09 09:22:54;;;;;;;8.93;2.80;;;;;;;22.77;63.32;99935.03;5381748;26;20388;-79
2024/04/09 09:25:25;;;;;;;10.27;3.03;;;;;;;22.65;65.12;99932.03;5439315;26;20007;-78
2024/04/09 09:28:06;;;;;;;12.73;3.67;;;;;;;22.54;65.42;99937.00;5439519;26;20005;-78
2024/04/09 09:30:42;;;;;;;13.38;4.07;;;;;;;22.39;66.25;99933.41;5441967;26;19999;-79
2024/04/09 09:33:19;;;;;;;9.55;3.78;;;;;;;22.32;66.47;99935.81;5440689;26;19994;-79
2024/04/09 09:35:50;;;;;;;12.35;4.13;;;;;;;22.36;66.44;99936.03;5440809;26;19991;-79
2024/04/09 09:38:20;;;;;;;12.60;4.88;;;;;;;21.91;69.74;99937.56;5412961;26;20005;-79
2024/04/09 09:40:49;;;;;;;9.27;5.07;;;;;;;21.51;72.23;99963.03;5443780;26;20093;-78
2024/04/09 09:43:21;;;;;;;9.38;4.93;;;18.70;99.90;;;22.13;68.91;99963.75;5441655;26;20491;-79
2024/04/09 09:45:48;;;;;;;14.27;5.38;;;18.70;99.90;;;21.98;69.36;99946.28;5438609;26;20010;-79
2024/04/09 09:48:19;;;;;;;11.48;5.60;;;18.70;99.90;;;22.20;69.43;99944.69;5446455;26;20015;-80
2024/04/09 09:50:45;;;;;;;12.88;6.05;;;18.60;99.90;;;21.82;68.45;99936.66;5383976;26;19998;-78
2024/04/09 09:53:12;;;;;;;12.50;6.78;;;18.60;99.90;;;21.94;72.38;99964.69;5445348;26;20003;-80
2024/04/09 09:55:41;;;;;;;15.20;7.72;;;18.40;99.90;;;22.88;65.40;99940.38;5442576;26;20002;-79
2024/04/09 09:58:14;;;;;;;11.95;6.75;;;18.70;99.90;;;23.03;65.21;99953.84;5440042;26;20060;-79
2024/04/09 10:00:42;;;;;;;13.13;7.15;;;18.90;99.90;;;23.33;61.93;99943.06;5441346;26;20455;-79
2024/04/09 10:03:07;;;;;;;;;;;19.20;99.90;;;22.91;64.48;99953.63;5432503;26;19999;-78
2024/04/09 10:05:35;;;;;;;12.05;7.68;;;19.20;99.90;;;23.52;61.57;99950.38;5442420;26;19925;-78
2024/04/09 10:08:01;;;;;;;12.18;7.50;;;19.40;99.90;;;21.56;69.53;99978.78;5443440;26;20438;-79
2024/04/09 10:10:30;;;;;;;13.90;8.50;;;19.00;99.90;;;21.04;71.51;99956.69;5442462;26;20010;-79
2024/04/09 10:13:06;;;;;;;10.95;7.80;;;18.80;99.90;;;22.28;69.57;99965.38;5444970;26;19998;-79
2024/04/09 10:15:32;;;;;;;10.88;7.60;;;18.80;99.90;;;22.89;67.01;99964.25;5444544;26;20462;-78
2024/04/09 10:18:04;;;;;;;12.23;7.50;;;19.00;99.90;;;23.69;60.84;99947.66;5442823;26;20010;-77